sensor_id;sensor_type;location;lat;lon;timestamp;P1;durP1;ratioP1;P2;durP2;ratioP2
74753;SDS011;63271;53.340;-6.260;2023-03-13T07:02:51;13.05;;;1.88;;
74753;SDS011;63271;53.340;-6.260;2023-03-13T07:05:17;10.45;;;1.85;;
74753;SDS011;63271;53.340;-6.260;2023-03-13T07:07:43;7.00;;;1.40;;
74753;SDS011;63271;53.340;-6.260;2023-03-13T07:10:09;18.40;;;2.17;;
74753;SDS011;63271;53.340;-6.260;2023-03-13T07:12:35;8.95;;;1.17;;
74753;SDS011;63271;53.340;-6.260;2023-03-13T07:15:01;11.15;;;1.40;;
74753;SDS011;63271;53.340;-6.260;2023-03-13T07:17:29;6.35;;;1.25;;
74753;SDS011;63271;53.340;-6.260;2023-03-13T07:19:54;7.85;;;1.20;;
74753;SDS011;63271;53.340;-6.260;2023-03-13T07:22:20;11.20;;;2.55;;
74753;SDS011;63271;53.340;-6.260;2023-03-13T07:24:45;8.35;;;1.30;;
74753;SDS011;63271;53.340;-6.260;2023-03-13T07:27:13;9.57;;;1.25;;
74753;SDS011;63271;53.340;-6.260;2023-03-13T07:29:38;17.23;;;1.88;;
74753;SDS011;63271;53.340;-6.260;2023-03-13T07:32:04;9.48;;;1.83;;
74753;SDS011;63271;53.340;-6.260;2023-03-13T07:34:30;16.20;;;2.42;;
74753;SDS011;63271;53.340;-6.260;2023-03-13T07:36:55;12.52;;;1.60;;
74753;SDS011;63271;53.340;-6.260;2023-03-13T07:39:23;13.57;;;1.65;;
74753;SDS011;63271;53.340;-6.260;2023-03-13T07:41:49;17.15;;;1.70;;
74753;SDS011;63271;53.340;-6.260;2023-03-13T07:44:14;8.38;;;1.38;;
74753;SDS011;63271;53.340;-6.260;2023-03-13T07:46:39;9.10;;;1.40;;
74753;SDS011;63271;53.340;-6.260;2023-03-13T07:49:05;12.68;;;2.28;;
74753;SDS011;63271;53.340;-6.260;2023-03-13T07:51:33;12.25;;;1.60;;
74753;SDS011;63271;53.340;-6.260;2023-03-13T07:53:58;12.20;;;1.70;;
74753;SDS011;63271;53.340;-6.260;2023-03-13T07:56:23;15.07;;;1.80;;
74753;SDS011;63271;53.340;-6.260;2023-03-13T07:58:49;17.00;;;2.42;;
74753;SDS011;63271;53.340;-6.260;2023-03-13T08:01:19;13.60;;;2.30;;
74753;SDS011;63271;53.340;-6.260;2023-03-13T08:03:51;16.02;;;2.70;;
74753;SDS011;63271;53.340;-6.260;2023-03-13T08:06:19;20.33;;;2.53;;
74753;SDS011;63271;53.340;-6.260;2023-03-13T08:08:49;24.35;;;2.22;;
74753;SDS011;63271;53.340;-6.260;2023-03-13T08:11:17;17.17;;;2.80;;
74753;SDS011;63271;53.340;-6.260;2023-03-13T08:13:44;25.17;;;3.97;;
74753;SDS011;63271;53.340;-6.260;2023-03-13T08:16:17;28.83;;;3.75;;
74753;SDS011;63271;53.340;-6.260;2023-03-13T08:18:44;31.45;;;4.53;;
74753;SDS011;63271;53.340;-6.260;2023-03-13T08:21:14;25.13;;;3.60;;
74753;SDS011;63271;53.340;-6.260;2023-03-13T08:23:41;29.67;;;3.97;;
74753;SDS011;63271;53.340;-6.260;2023-03-13T08:26:14;35.65;;;5.05;;
74753;SDS011;63271;53.340;-6.260;2023-03-13T08:28:41;34.03;;;4.13;;
74753;SDS011;63271;53.340;-6.260;2023-03-13T08:33:36;36.25;;;4.28;;
74753;SDS011;63271;53.340;-6.260;2023-03-13T08:36:12;28.48;;;4.70;;
74753;SDS011;63271;53.340;-6.260;2023-03-13T08:38:38;30.48;;;3.97;;
74753;SDS011;63271;53.340;-6.260;2023-03-13T08:41:08;30.50;;;4.80;;
74753;SDS011;63271;53.340;-6.260;2023-03-13T08:43:34;26.35;;;4.78;;
74753;SDS011;63271;53.340;-6.260;2023-03-13T08:46:00;26.15;;;4.03;;
74753;SDS011;63271;53.340;-6.260;2023-03-13T08:48:25;26.63;;;4.13;;
74753;SDS011;63271;53.340;-6.260;2023-03-13T08:51:00;31.00;;;5.00;;
74753;SDS011;63271;53.340;-6.260;2023-03-13T08:53:27;34.85;;;5.38;;
74753;SDS011;63271;53.340;-6.260;2023-03-13T08:55:53;34.35;;;5.35;;
74753;SDS011;63271;53.340;-6.260;2023-03-13T08:58:19;32.83;;;4.32;;
74753;SDS011;63271;53.340;-6.260;2023-03-13T09:00:47;19.35;;;3.13;;
74753;SDS011;63271;53.340;-6.260;2023-03-13T09:03:12;24.40;;;4.05;;
74753;SDS011;63271;53.340;-6.260;2023-03-13T09:05:37;20.40;;;3.65;;
74753;SDS011;63271;53.340;-6.260;2023-03-13T09:08:03;21.42;;;3.08;;
74753;SDS011;63271;53.340;-6.260;2023-03-13T09:10:34;19.02;;;2.83;;
74753;SDS011;63271;53.340;-6.260;2023-03-13T09:13:00;18.92;;;2.95;;
74753;SDS011;63271;53.340;-6.260;2023-03-13T09:15:28;22.80;;;2.75;;
74753;SDS011;63271;53.340;-6.260;2023-03-13T09:17:53;21.13;;;3.58;;
74753;SDS011;63271;53.340;-6.260;2023-03-13T09:20:24;21.17;;;3.20;;
74753;SDS011;63271;53.340;-6.260;2023-03-13T09:22:52;13.30;;;1.77;;
74753;SDS011;63271;53.340;-6.260;2023-03-13T09:25:17;18.67;;;2.90;;
74753;SDS011;63271;53.340;-6.260;2023-03-13T09:27:45;17.00;;;2.70;;
74753;SDS011;63271;53.340;-6.260;2023-03-13T09:30:10;12.73;;;2.78;;
74753;SDS011;63271;53.340;-6.260;2023-03-13T09:32:36;14.98;;;2.35;;
74753;SDS011;63271;53.340;-6.260;2023-03-13T09:35:01;10.85;;;2.20;;
74753;SDS011;63271;53.340;-6.260;2023-03-13T09:37:29;10.27;;;2.35;;
74753;SDS011;63271;53.340;-6.260;2023-03-13T09:39:55;18.02;;;2.83;;
74753;SDS011;63271;53.340;-6.260;2023-03-13T09:42:34;12.30;;;2.28;;
74753;SDS011;63271;53.340;-6.260;2023-03-13T09:45:33;14.32;;;2.15;;
74753;SDS011;63271;53.340;-6.260;2023-03-13T09:48:16;11.23;;;2.17;;
74753;SDS011;63271;53.340;-6.260;2023-03-13T09:50:58;8.13;;;1.77;;
74753;SDS011;63271;53.340;-6.260;2023-03-13T09:56:29;10.48;;;2.05;;
74753;SDS011;63271;53.340;-6.260;2023-03-13T10:01:53;10.15;;;1.60;;
74753;SDS011;63271;53.340;-6.260;2023-03-13T10:06:45;10.65;;;1.85;;
74753;SDS011;63271;53.340;-6.260;2023-03-13T10:09:18;8.95;;;1.60;;
74753;SDS011;63271;53.340;-6.260;2023-03-13T10:11:55;6.28;;;0.95;;
74753;SDS011;63271;53.340;-6.260;2023-03-13T10:19:44;3.42;;;0.70;;
74753;SDS011;63271;53.340;-6.260;2023-03-13T10:22:15;5.25;;;1.00;;
74753;SDS011;63271;53.340;-6.260;2023-03-13T10:24:45;5.55;;;1.23;;
74753;SDS011;63271;53.340;-6.260;2023-03-13T10:27:13;3.60;;;0.90;;
74753;SDS011;63271;53.340;-6.260;2023-03-13T10:29:39;4.15;;;1.33;;
74753;SDS011;63271;53.340;-6.260;2023-03-13T10:32:07;1.98;;;0.50;;
74753;SDS011;63271;53.340;-6.260;2023-03-13T10:37:39;5.43;;;0.40;;
74753;SDS011;63271;53.340;-6.260;2023-03-13T10:40:20;1.70;;;0.75;;
74753;SDS011;63271;53.340;-6.260;2023-03-13T10:42:49;2.85;;;1.05;;
74753;SDS011;63271;53.340;-6.260;2023-03-13T10:45:16;4.45;;;0.75;;
74753;SDS011;63271;53.340;-6.260;2023-03-13T10:47:43;1.20;;;0.65;;
74753;SDS011;63271;53.340;-6.260;2023-03-13T10:50:16;1.70;;;0.80;;
74753;SDS011;63271;53.340;-6.260;2023-03-13T10:52:44;2.80;;;0.68;;
74753;SDS011;63271;53.340;-6.260;2023-03-13T10:55:12;1.83;;;0.80;;
74753;SDS011;63271;53.340;-6.260;2023-03-13T10:57:42;2.92;;;0.57;;
74753;SDS011;63271;53.340;-6.260;2023-03-13T11:00:35;1.92;;;0.77;;
74753;SDS011;63271;53.340;-6.260;2023-03-13T11:03:15;2.38;;;0.57;;
74753;SDS011;63271;53.340;-6.260;2023-03-13T11:05:42;1.63;;;0.50;;
74753;SDS011;63271;53.340;-6.260;2023-03-13T11:10:50;1.38;;;0.52;;
74753;SDS011;63271;53.340;-6.260;2023-03-13T11:13:36;2.40;;;0.68;;
74753;SDS011;63271;53.340;-6.260;2023-03-13T11:16:03;2.83;;;0.57;;
74753;SDS011;63271;53.340;-6.260;2023-03-13T11:30:01;8.30;;;0.85;;
74753;SDS011;63271;53.340;-6.260;2023-03-13T11:32:51;2.13;;;0.60;;
74753;SDS011;63271;53.340;-6.260;2023-03-13T11:38:17;3.53;;;0.90;;
74753;SDS011;63271;53.340;-6.260;2023-03-13T12:04:41;3.72;;;1.00;;
74753;SDS011;63271;53.340;-6.260;2023-03-13T12:10:04;4.05;;;1.40;;
74753;SDS011;63271;53.340;-6.260;2023-03-13T12:12:39;2.22;;;0.60;;
74753;SDS011;63271;53.340;-6.260;2023-03-13T12:15:16;2.00;;;0.73;;
74753;SDS011;63271;53.340;-6.260;2023-03-13T12:17:50;5.70;;;0.95;;
74753;SDS011;63271;53.340;-6.260;2023-03-13T12:20:23;5.22;;;0.93;;
74753;SDS011;63271;53.340;-6.260;2023-03-13T12:22:54;6.22;;;1.00;;
74753;SDS011;63271;53.340;-6.260;2023-03-13T12:25:36;4.00;;;1.30;;
74753;SDS011;63271;53.340;-6.260;2023-03-13T12:36:19;7.65;;;1.58;;
74753;SDS011;63271;53.340;-6.260;2023-03-13T12:39:04;7.22;;;0.95;;
74753;SDS011;63271;53.340;-6.260;2023-03-13T12:41:47;10.70;;;1.58;;
74753;SDS011;63271;53.340;-6.260;2023-03-13T12:44:23;5.35;;;1.60;;
74753;SDS011;63271;53.340;-6.260;2023-03-13T12:47:03;5.18;;;2.33;;
74753;SDS011;63271;53.340;-6.260;2023-03-13T12:49:43;8.15;;;1.30;;
74753;SDS011;63271;53.340;-6.260;2023-03-13T12:59:57;8.63;;;2.13;;
74753;SDS011;63271;53.340;-6.260;2023-03-13T13:02:29;8.20;;;1.67;;
74753;SDS011;63271;53.340;-6.260;2023-03-13T13:04:56;8.98;;;1.98;;
74753;SDS011;63271;53.340;-6.260;2023-03-13T13:12:26;10.65;;;1.85;;
74753;SDS011;63271;53.340;-6.260;2023-03-13T13:14:55;8.20;;;1.60;;
74753;SDS011;63271;53.340;-6.260;2023-03-13T13:17:39;10.75;;;1.98;;
74753;SDS011;63271;53.340;-6.260;2023-03-13T13:20:27;13.68;;;1.90;;
74753;SDS011;63271;53.340;-6.260;2023-03-13T13:23:26;8.35;;;2.50;;
74753;SDS011;63271;53.340;-6.260;2023-03-13T13:28:54;10.90;;;2.00;;
74753;SDS011;63271;53.340;-6.260;2023-03-13T13:36:56;13.85;;;3.03;;
74753;SDS011;63271;53.340;-6.260;2023-03-13T13:42:00;17.60;;;2.50;;
74753;SDS011;63271;53.340;-6.260;2023-03-13T13:47:43;12.52;;;1.65;;
74753;SDS011;63271;53.340;-6.260;2023-03-13T13:52:44;12.77;;;1.70;;
74753;SDS011;63271;53.340;-6.260;2023-03-13T14:00:58;12.75;;;2.90;;
74753;SDS011;63271;53.340;-6.260;2023-03-13T14:03:28;20.70;;;2.08;;
74753;SDS011;63271;53.340;-6.260;2023-03-13T14:08:28;5.28;;;1.63;;
74753;SDS011;63271;53.340;-6.260;2023-03-13T14:11:06;7.85;;;1.77;;
74753;SDS011;63271;53.340;-6.260;2023-03-13T14:13:39;7.28;;;1.70;;
74753;SDS011;63271;53.340;-6.260;2023-03-13T14:16:38;11.60;;;2.17;;
74753;SDS011;63271;53.340;-6.260;2023-03-13T14:18:56;6.03;;;1.60;;
74753;SDS011;63271;53.340;-6.260;2023-03-13T14:21:22;6.50;;;1.70;;
74753;SDS011;63271;53.340;-6.260;2023-03-13T14:23:49;9.00;;;2.80;;
74753;SDS011;63271;53.340;-6.260;2023-03-13T14:26:22;10.02;;;2.58;;
74753;SDS011;63271;53.340;-6.260;2023-03-13T14:28:49;9.10;;;2.28;;
74753;SDS011;63271;53.340;-6.260;2023-03-13T14:31:22;12.43;;;3.17;;
74753;SDS011;63271;53.340;-6.260;2023-03-13T14:33:56;12.15;;;2.53;;
74753;SDS011;63271;53.340;-6.260;2023-03-13T14:36:23;9.13;;;2.28;;
74753;SDS011;63271;53.340;-6.260;2023-03-13T14:38:55;19.33;;;2.83;;
74753;SDS011;63271;53.340;-6.260;2023-03-13T14:44:27;13.50;;;2.65;;
74753;SDS011;63271;53.340;-6.260;2023-03-13T14:46:54;11.43;;;3.00;;
74753;SDS011;63271;53.340;-6.260;2023-03-13T14:49:23;10.00;;;2.63;;
74753;SDS011;63271;53.340;-6.260;2023-03-13T14:52:06;5.93;;;3.10;;
74753;SDS011;63271;53.340;-6.260;2023-03-13T14:54:50;6.15;;;2.63;;
74753;SDS011;63271;53.340;-6.260;2023-03-13T14:57:18;5.78;;;2.97;;
74753;SDS011;63271;53.340;-6.260;2023-03-13T14:59:48;9.00;;;4.10;;
74753;SDS011;63271;53.340;-6.260;2023-03-13T15:02:29;7.30;;;3.40;;
74753;SDS011;63271;53.340;-6.260;2023-03-13T15:04:58;8.10;;;3.83;;
74753;SDS011;63271;53.340;-6.260;2023-03-13T15:07:26;9.35;;;4.25;;
74753;SDS011;63271;53.340;-6.260;2023-03-13T15:10:16;8.00;;;2.42;;
74753;SDS011;63271;53.340;-6.260;2023-03-13T15:12:55;10.35;;;2.80;;
74753;SDS011;63271;53.340;-6.260;2023-03-13T15:15:23;11.60;;;2.80;;
74753;SDS011;63271;53.340;-6.260;2023-03-13T15:17:48;4.88;;;2.20;;
74753;SDS011;63271;53.340;-6.260;2023-03-13T15:20:14;4.80;;;2.20;;
74753;SDS011;63271;53.340;-6.260;2023-03-13T15:22:42;5.50;;;2.00;;
74753;SDS011;63271;53.340;-6.260;2023-03-13T15:25:21;7.18;;;2.40;;
74753;SDS011;63271;53.340;-6.260;2023-03-13T15:27:48;7.50;;;2.60;;
74753;SDS011;63271;53.340;-6.260;2023-03-13T15:30:17;5.65;;;1.67;;
74753;SDS011;63271;53.340;-6.260;2023-03-13T15:32:49;3.13;;;1.35;;
74753;SDS011;63271;53.340;-6.260;2023-03-13T15:35:20;6.22;;;1.75;;
74753;SDS011;63271;53.340;-6.260;2023-03-13T15:37:51;2.55;;;1.20;;
74753;SDS011;63271;53.340;-6.260;2023-03-13T15:40:19;7.35;;;1.98;;
74753;SDS011;63271;53.340;-6.260;2023-03-13T15:42:45;5.75;;;2.03;;
74753;SDS011;63271;53.340;-6.260;2023-03-13T15:45:11;7.07;;;1.88;;
74753;SDS011;63271;53.340;-6.260;2023-03-13T15:47:37;6.00;;;1.52;;
74753;SDS011;63271;53.340;-6.260;2023-03-13T15:50:02;3.85;;;1.70;;
74753;SDS011;63271;53.340;-6.260;2023-03-13T15:52:28;6.53;;;2.13;;
74753;SDS011;63271;53.340;-6.260;2023-03-13T15:54:53;8.00;;;2.05;;
74753;SDS011;63271;53.340;-6.260;2023-03-13T15:57:21;8.07;;;3.05;;
74753;SDS011;63271;53.340;-6.260;2023-03-13T15:59:49;9.80;;;1.80;;
74753;SDS011;63271;53.340;-6.260;2023-03-13T16:02:19;10.35;;;1.92;;
74753;SDS011;63271;53.340;-6.260;2023-03-13T16:04:47;5.72;;;1.88;;
74753;SDS011;63271;53.340;-6.260;2023-03-13T16:07:14;6.65;;;2.05;;
74753;SDS011;63271;53.340;-6.260;2023-03-13T16:09:46;2.72;;;1.52;;
74753;SDS011;63271;53.340;-6.260;2023-03-13T16:12:12;6.90;;;1.63;;
74753;SDS011;63271;53.340;-6.260;2023-03-13T16:14:37;5.13;;;1.65;;
74753;SDS011;63271;53.340;-6.260;2023-03-13T16:17:09;6.40;;;1.95;;
74753;SDS011;63271;53.340;-6.260;2023-03-13T16:19:43;8.25;;;2.20;;
74753;SDS011;63271;53.340;-6.260;2023-03-13T16:22:12;11.93;;;2.65;;
74753;SDS011;63271;53.340;-6.260;2023-03-13T16:24:38;5.97;;;2.22;;
74753;SDS011;63271;53.340;-6.260;2023-03-13T16:27:14;5.03;;;1.92;;
74753;SDS011;63271;53.340;-6.260;2023-03-13T16:29:40;4.22;;;1.70;;
74753;SDS011;63271;53.340;-6.260;2023-03-13T16:32:08;14.35;;;8.25;;
74753;SDS011;63271;53.340;-6.260;2023-03-13T16:34:36;4.30;;;1.60;;
74753;SDS011;63271;53.340;-6.260;2023-03-13T16:37:05;5.38;;;1.80;;
74753;SDS011;63271;53.340;-6.260;2023-03-13T16:39:35;7.22;;;2.05;;
74753;SDS011;63271;53.340;-6.260;2023-03-13T16:42:01;5.63;;;1.90;;
74753;SDS011;63271;53.340;-6.260;2023-03-13T16:44:26;8.35;;;2.10;;
74753;SDS011;63271;53.340;-6.260;2023-03-13T16:46:51;7.72;;;2.08;;
74753;SDS011;63271;53.340;-6.260;2023-03-13T16:49:19;4.68;;;1.55;;
74753;SDS011;63271;53.340;-6.260;2023-03-13T16:51:49;3.03;;;1.92;;
74753;SDS011;63271;53.340;-6.260;2023-03-13T16:54:15;5.88;;;1.90;;
74753;SDS011;63271;53.340;-6.260;2023-03-13T16:56:41;6.82;;;2.05;;
74753;SDS011;63271;53.340;-6.260;2023-03-13T16:59:11;4.50;;;1.40;;
74753;SDS011;63271;53.340;-6.260;2023-03-13T17:01:38;5.68;;;2.35;;
74753;SDS011;63271;53.340;-6.260;2023-03-13T17:04:03;8.93;;;3.22;;
74753;SDS011;63271;53.340;-6.260;2023-03-13T17:06:33;9.15;;;2.50;;
74753;SDS011;63271;53.340;-6.260;2023-03-13T17:09:00;5.80;;;2.15;;
74753;SDS011;63271;53.340;-6.260;2023-03-13T17:11:26;7.82;;;2.22;;
74753;SDS011;63271;53.340;-6.260;2023-03-13T17:13:52;6.93;;;1.63;;
74753;SDS011;63271;53.340;-6.260;2023-03-13T17:16:27;8.25;;;2.13;;
74753;SDS011;63271;53.340;-6.260;2023-03-13T17:18:57;3.28;;;1.45;;
74753;SDS011;63271;53.340;-6.260;2023-03-13T17:21:26;7.90;;;2.10;;
74753;SDS011;63271;53.340;-6.260;2023-03-13T17:23:54;2.55;;;1.45;;
74753;SDS011;63271;53.340;-6.260;2023-03-13T17:28:52;6.38;;;1.95;;
74753;SDS011;63271;53.340;-6.260;2023-03-13T17:31:22;9.27;;;2.50;;
74753;SDS011;63271;53.340;-6.260;2023-03-13T17:33:48;7.47;;;2.13;;
74753;SDS011;63271;53.340;-6.260;2023-03-13T17:36:16;7.10;;;2.42;;
74753;SDS011;63271;53.340;-6.260;2023-03-13T17:38:43;17.30;;;7.68;;
74753;SDS011;63271;53.340;-6.260;2023-03-13T17:41:12;5.82;;;2.17;;
74753;SDS011;63271;53.340;-6.260;2023-03-13T17:43:39;4.07;;;2.03;;
74753;SDS011;63271;53.340;-6.260;2023-03-13T17:48:39;7.70;;;1.83;;
74753;SDS011;63271;53.340;-6.260;2023-03-13T17:51:05;4.30;;;1.42;;
74753;SDS011;63271;53.340;-6.260;2023-03-13T17:53:33;15.98;;;2.55;;
74753;SDS011;63271;53.340;-6.260;2023-03-13T17:56:00;6.80;;;2.80;;
74753;SDS011;63271;53.340;-6.260;2023-03-13T17:58:29;12.43;;;2.03;;
74753;SDS011;63271;53.340;-6.260;2023-03-13T18:00:55;12.27;;;3.83;;
74753;SDS011;63271;53.340;-6.260;2023-03-13T18:03:20;5.03;;;2.10;;
74753;SDS011;63271;53.340;-6.260;2023-03-13T18:05:47;7.20;;;2.22;;
74753;SDS011;63271;53.340;-6.260;2023-03-13T18:08:12;5.68;;;1.77;;
74753;SDS011;63271;53.340;-6.260;2023-03-13T18:10:38;6.95;;;2.33;;
74753;SDS011;63271;53.340;-6.260;2023-03-13T18:13:05;5.05;;;1.90;;
74753;SDS011;63271;53.340;-6.260;2023-03-13T18:15:31;3.95;;;1.80;;
74753;SDS011;63271;53.340;-6.260;2023-03-13T18:17:56;8.32;;;2.45;;
74753;SDS011;63271;53.340;-6.260;2023-03-13T18:20:23;10.43;;;1.80;;
74753;SDS011;63271;53.340;-6.260;2023-03-13T18:22:52;10.30;;;1.85;;
74753;SDS011;63271;53.340;-6.260;2023-03-13T18:25:23;11.55;;;2.20;;
74753;SDS011;63271;53.340;-6.260;2023-03-13T18:27:48;16.17;;;4.28;;
74753;SDS011;63271;53.340;-6.260;2023-03-13T18:30:15;10.75;;;3.20;;
74753;SDS011;63271;53.340;-6.260;2023-03-13T18:32:42;8.30;;;2.78;;
74753;SDS011;63271;53.340;-6.260;2023-03-13T18:35:08;13.43;;;4.35;;
74753;SDS011;63271;53.340;-6.260;2023-03-13T18:37:34;10.77;;;3.00;;
74753;SDS011;63271;53.340;-6.260;2023-03-13T18:39:59;9.95;;;2.67;;
74753;SDS011;63271;53.340;-6.260;2023-03-13T18:42:25;13.02;;;2.17;;
74753;SDS011;63271;53.340;-6.260;2023-03-13T18:44:53;9.00;;;2.30;;
74753;SDS011;63271;53.340;-6.260;2023-03-13T18:47:21;8.60;;;2.47;;
74753;SDS011;63271;53.340;-6.260;2023-03-13T18:49:52;8.45;;;1.73;;
74753;SDS011;63271;53.340;-6.260;2023-03-13T18:52:18;7.10;;;2.17;;
74753;SDS011;63271;53.340;-6.260;2023-03-13T18:54:43;11.00;;;3.45;;
74753;SDS011;63271;53.340;-6.260;2023-03-13T18:57:10;6.18;;;2.03;;
74753;SDS011;63271;53.340;-6.260;2023-03-13T18:59:37;10.73;;;4.47;;
74753;SDS011;63271;53.340;-6.260;2023-03-13T19:02:04;9.57;;;2.42;;
74753;SDS011;63271;53.340;-6.260;2023-03-13T19:04:31;9.07;;;2.45;;
74753;SDS011;63271;53.340;-6.260;2023-03-13T19:06:56;11.60;;;2.50;;
74753;SDS011;63271;53.340;-6.260;2023-03-13T19:09:21;10.98;;;2.35;;
74753;SDS011;63271;53.340;-6.260;2023-03-13T19:11:49;9.10;;;3.38;;
74753;SDS011;63271;53.340;-6.260;2023-03-13T19:14:15;17.95;;;2.83;;
74753;SDS011;63271;53.340;-6.260;2023-03-13T19:16:50;7.63;;;1.85;;
74753;SDS011;63271;53.340;-6.260;2023-03-13T19:19:19;7.75;;;2.03;;
74753;SDS011;63271;53.340;-6.260;2023-03-13T19:21:46;12.80;;;2.40;;
74753;SDS011;63271;53.340;-6.260;2023-03-13T19:24:12;7.22;;;2.30;;
74753;SDS011;63271;53.340;-6.260;2023-03-13T19:26:41;8.93;;;1.92;;
74753;SDS011;63271;53.340;-6.260;2023-03-13T19:29:21;13.55;;;2.58;;
74753;SDS011;63271;53.340;-6.260;2023-03-13T19:31:49;11.55;;;2.10;;
74753;SDS011;63271;53.340;-6.260;2023-03-13T19:34:14;9.43;;;2.40;;
74753;SDS011;63271;53.340;-6.260;2023-03-13T19:36:44;6.80;;;2.10;;
74753;SDS011;63271;53.340;-6.260;2023-03-13T19:39:21;11.82;;;1.98;;
74753;SDS011;63271;53.340;-6.260;2023-03-13T19:41:48;10.32;;;2.30;;
74753;SDS011;63271;53.340;-6.260;2023-03-13T19:44:17;7.50;;;1.88;;
74753;SDS011;63271;53.340;-6.260;2023-03-13T19:46:43;12.80;;;2.00;;
74753;SDS011;63271;53.340;-6.260;2023-03-13T19:49:20;8.10;;;2.38;;
74753;SDS011;63271;53.340;-6.260;2023-03-13T19:51:46;9.15;;;2.65;;
74753;SDS011;63271;53.340;-6.260;2023-03-13T19:54:12;6.80;;;1.85;;
74753;SDS011;63271;53.340;-6.260;2023-03-13T19:56:38;9.25;;;2.40;;
74753;SDS011;63271;53.340;-6.260;2023-03-13T19:59:18;8.73;;;2.90;;
